Time;durP1;ratioP1;P1;durP2;ratioP2;P2;SDS_P1;SDS_P2;PMS_P1;PMS_P2;Temp;Humidity;BMP_temperature;BMP_pressure;BME280_temperature;BME280_humidity;BME280_pressure;Samples;Min_cycle;Max_cycle;Signal;HPM_P1;HPM_P2
2023/10/24 00:01:50;;;;;;;19.20;12.40;;;15.70;99.90;;;;;;5054282;28;20067;-72
2023/10/24 00:04:15;;;;;;;21.30;11.07;;;16.20;99.90;;;;;;5037957;28;20041;-71
2023/10/24 00:06:41;;;;;;;16.92;11.70;;;15.90;99.90;;;;;;5053373;28;20126;-71
2023/10/24 00:09:06;;;;;;;15.88;11.10;;;16.40;99.90;;;;;;5051724;28;20456;-71
2023/10/24 00:11:33;;;;;;;16.83;11.63;;;16.00;99.90;;;;;;5051211;28;20044;-71
2023/10/24 00:13:59;;;;;;;17.27;11.38;;;15.70;99.90;;;;;;5051446;28;20045;-71
2023/10/24 00:16:24;;;;;;;20.13;11.63;;;15.90;99.90;;;;;;5034988;28;20045;-71
2023/10/24 00:18:50;;;;;;;18.45;11.55;;;16.30;99.90;;;;;;5051090;28;20385;-70
2023/10/24 00:21:15;;;;;;;17.63;11.27;;;16.00;99.90;;;;;;5034807;28;20041;-71
2023/10/24 00:23:41;;;;;;;16.27;11.13;;;15.80;99.90;;;;;;5050853;28;20036;-71
2023/10/24 00:26:06;;;;;;;15.20;11.68;;;16.30;99.90;;;;;;5052652;28;20040;-71
2023/10/24 00:28:33;;;;;;;19.48;11.85;;;15.70;99.90;;;;;;5051817;28;20045;-71
2023/10/24 00:30:59;;;;;;;18.00;10.90;;;15.60;99.90;;;;;;5042376;28;20124;-71
2023/10/24 00:33:25;;;;;;;16.35;10.75;;;15.90;99.90;;;;;;5072571;28;20399;-71
2023/10/24 00:35:51;;;;;;;21.38;12.60;;;15.60;99.90;;;;;;5070851;28;20086;-71
2023/10/24 00:38:17;;;;;;;16.33;11.35;;;15.80;99.90;;;;;;5044790;28;20404;-71
2023/10/24 00:40:42;;;;;;;18.92;11.30;;;15.80;99.90;;;;;;5054581;28;20044;-71
2023/10/24 00:43:08;;;;;;;19.48;12.50;;;16.30;99.90;;;;;;5070753;28;20513;-71
2023/10/24 00:45:35;;;;;;;19.30;12.20;;;16.00;99.90;;;;;;5043450;28;20068;-71
2023/10/24 00:48:02;;;;;;;17.52;11.95;;;16.20;99.90;;;;;;5051363;28;20037;-71
2023/10/24 00:50:28;;;;;;;20.67;12.73;;;15.90;99.90;;;;;;5050676;28;20040;-71
2023/10/24 00:52:53;;;;;;;17.67;12.40;;;16.00;99.90;;;;;;5050340;28;20511;-70
2023/10/24 00:55:21;;;;;;;18.98;12.32;;;15.80;99.90;;;;;;5050706;28;20098;-70
2023/10/24 00:57:48;;;;;;;21.38;12.30;;;16.20;99.90;;;;;;5050992;28;20580;-71
2023/10/24 01:00:14;;;;;;;18.75;12.95;;;15.70;99.90;;;;;;5034245;28;20045;-71
2023/10/24 01:02:40;;;;;;;21.20;13.35;;;16.30;99.90;;;;;;5050292;28;20393;-71
2023/10/24 01:05:07;;;;;;;24.35;13.85;;;15.90;99.90;;;;;;5050752;28;20045;-71
2023/10/24 01:07:33;;;;;;;21.95;13.10;;;16.10;99.90;;;;;;5050003;28;20049;-71
2023/10/24 01:09:59;;;;;;;20.60;13.10;;;16.40;99.90;;;;;;5050292;28;20123;-71
2023/10/24 01:12:25;;;;;;;24.60;14.43;;;15.90;99.90;;;;;;5033684;28;20216;-71
2023/10/24 01:14:51;;;;;;;21.60;13.30;;;15.70;99.90;;;;;;5051294;28;20139;-71
2023/10/24 01:17:17;;;;;;;22.60;13.73;;;16.10;99.90;;;;;;5050641;28;20187;-71
2023/10/24 01:19:43;;;;;;;20.35;12.93;;;16.20;99.90;;;;;;5032939;28;20140;-71
2023/10/24 01:22:08;;;;;;;19.45;13.90;;;16.80;99.90;;;;;;5033707;28;20107;-71
2023/10/24 01:24:35;;;;;;;20.55;13.68;;;16.10;99.90;;;;;;5049984;28;20029;-70
2023/10/24 01:27:00;;;;;;;24.27;13.32;;;16.00;99.90;;;;;;5033660;28;20044;-71
2023/10/24 01:29:26;;;;;;;26.35;14.45;;;16.70;99.90;;;;;;5050110;28;20043;-71
2023/10/24 01:31:52;;;;;;;20.15;13.18;;;15.70;99.90;;;;;;5050299;28;20638;-71
2023/10/24 01:34:17;;;;;;;26.10;14.55;;;15.60;99.90;;;;;;5049975;28;20043;-71
2023/10/24 01:36:43;;;;;;;20.38;14.15;;;15.70;99.90;;;;;;5050040;28;20488;-71
2023/10/24 01:39:08;;;;;;;25.17;14.15;;;15.80;99.90;;;;;;5033348;28;20051;-71
2023/10/24 01:41:34;;;;;;;27.95;15.82;;;16.20;99.90;;;;;;5049604;28;20033;-70
2023/10/24 01:44:00;;;;;;;25.95;14.10;;;16.50;99.90;;;;;;5049882;28;20037;-70
2023/10/24 01:46:25;;;;;;;22.88;14.57;;;15.60;99.90;;;;;;5049792;28;20040;-70
2023/10/24 01:48:51;;;;;;;27.17;15.13;;;15.60;99.90;;;;;;5050113;28;20041;-71
2023/10/24 01:51:17;;;;;;;22.80;14.45;;;15.40;99.90;;;;;;5049725;28;20041;-70
2023/10/24 01:53:42;;;;;;;20.85;13.15;;;15.70;99.90;;;;;;5051255;28;20044;-71
2023/10/24 01:56:10;;;;;;;20.50;13.75;;;15.90;99.90;;;;;;5050061;28;20049;-71
2023/10/24 01:58:36;;;;;;;23.83;14.13;;;15.50;99.90;;;;;;5049479;28;20037;-71
2023/10/24 02:01:02;;;;;;;22.83;14.00;;;15.90;99.90;;;;;;5050706;28;20424;-70
2023/10/24 02:03:28;;;;;;;19.75;13.45;;;16.20;99.90;;;;;;5051494;28;20048;-71
2023/10/24 02:05:53;;;;;;;19.60;13.32;;;16.40;99.90;;;;;;5050907;28;20122;-71
2023/10/24 02:08:19;;;;;;;19.92;13.27;;;15.60;99.90;;;;;;5033545;28;20039;-71
2023/10/24 02:10:45;;;;;;;20.92;13.40;;;15.90;99.90;;;;;;5049531;28;20389;-70
2023/10/24 02:13:10;;;;;;;25.05;14.52;;;15.80;99.90;;;;;;5050590;28;20037;-70
2023/10/24 02:15:37;;;;;;;22.05;13.20;;;15.80;99.90;;;;;;5049164;28;20465;-70
2023/10/24 02:18:03;;;;;;;19.50;12.93;;;15.80;99.90;;;;;;5050298;28;20045;-71
2023/10/24 02:20:28;;;;;;;17.40;11.77;;;15.70;99.90;;;;;;5034015;28;20110;-71
2023/10/24 02:22:54;;;;;;;15.93;11.60;;;15.90;99.90;;;;;;5054126;28;20041;-71
2023/10/24 02:25:19;;;;;;;24.08;12.80;;;15.80;99.90;;;;;;5036836;28;20033;-71
2023/10/24 02:27:45;;;;;;;19.17;11.80;;;15.50;99.90;;;;;;5053017;28;20175;-71
2023/10/24 02:30:11;;;;;;;18.20;11.68;;;16.10;99.90;;;;;;5036866;28;20412;-70
2023/10/24 02:32:37;;;;;;;17.33;12.10;;;16.20;99.90;;;;;;5052957;28;20083;-70
2023/10/24 02:35:03;;;;;;;15.40;11.18;;;16.10;99.90;;;;;;5053305;28;20477;-71
2023/10/24 02:37:28;;;;;;;16.25;10.80;;;16.40;99.90;;;;;;5052800;28;20120;-71
2023/10/24 02:39:54;;;;;;;15.80;11.57;;;16.30;99.90;;;;;;5053191;28;20032;-71
2023/10/24 02:42:19;;;;;;;13.95;9.85;;;15.70;99.90;;;;;;5052997;28;20087;-71
2023/10/24 02:44:49;;;;;;;13.70;9.95;;;15.90;99.90;;;;;;5053494;28;20492;-70
2023/10/24 02:47:15;;;;;;;14.65;9.98;;;16.00;99.90;;;;;;5052776;28;20083;-69
2023/10/24 02:49:40;;;;;;;13.75;10.35;;;16.30;99.90;;;;;;5036142;28;20044;-72
2023/10/24 02:52:06;;;;;;;15.77;10.63;;;16.50;99.90;;;;;;5053000;28;20037;-70
2023/10/24 02:54:31;;;;;;;14.07;9.98;;;15.90;99.90;;;;;;5052915;28;20052;-71
2023/10/24 02:56:57;;;;;;;13.38;9.23;;;16.50;99.90;;;;;;5054145;28;20045;-71
2023/10/24 02:59:22;;;;;;;16.92;10.90;;;16.20;99.90;;;;;;5054249;28;20069;-71
2023/10/24 03:01:48;;;;;;;13.43;8.80;;;15.70;99.90;;;;;;5052801;28;20032;-71
2023/10/24 03:04:13;;;;;;;13.52;9.13;;;16.20;99.90;;;;;;5054930;28;20127;-71
2023/10/24 03:06:39;;;;;;;12.07;9.27;;;15.90;99.90;;;;;;5053898;28;20044;-71
2023/10/24 03:09:06;;;;;;;13.70;9.82;;;16.60;99.90;;;;;;5053658;28;20040;-71
2023/10/24 03:11:32;;;;;;;13.32;8.80;;;16.50;99.90;;;;;;5052203;28;20044;-71
2023/10/24 03:13:58;;;;;;;12.43;8.82;;;16.60;99.90;;;;;;5053134;28;20040;-71
2023/10/24 03:16:23;;;;;;;13.27;9.63;;;16.60;99.90;;;;;;5053578;28;20037;-70
2023/10/24 03:18:49;;;;;;;11.95;8.75;;;16.30;99.90;;;;;;5053850;28;20041;-71
2023/10/24 03:21:14;;;;;;;14.85;10.05;;;16.80;99.90;;;;;;5052747;28;20047;-71
2023/10/24 03:23:40;;;;;;;12.00;8.57;;;16.70;99.90;;;;;;5052412;28;20033;-71
2023/10/24 03:26:06;;;;;;;12.73;8.20;;;15.90;99.90;;;;;;5052247;28;20053;-71
2023/10/24 03:28:32;;;;;;;13.38;9.55;;;16.60;99.90;;;;;;5052837;28;20579;-71
2023/10/24 03:31:06;;;;;;;12.63;8.90;;;16.70;99.90;;;;;;5051044;28;20091;-72
2023/10/24 03:33:33;;;;;;;12.50;8.70;;;15.90;99.90;;;;;;5052215;28;20090;-71
2023/10/24 03:35:59;;;;;;;14.48;9.07;;;16.40;99.90;;;;;;5051923;28;20037;-71
2023/10/24 03:38:26;;;;;;;12.70;8.80;;;16.50;99.90;;;;;;5052019;28;20029;-71
2023/10/24 03:40:55;;;;;;;11.98;9.02;;;16.60;99.90;;;;;;5052340;28;20072;-71
2023/10/24 03:43:21;;;;;;;12.30;9.00;;;16.80;99.90;;;;;;5051805;28;20060;-71
2023/10/24 03:45:47;;;;;;;13.65;8.90;;;16.00;99.90;;;;;;5052014;28;20565;-71
2023/10/24 03:48:13;;;;;;;15.20;9.52;;;16.00;99.90;;;;;;5052089;28;20036;-71
2023/10/24 03:50:41;;;;;;;13.48;9.35;;;16.30;99.90;;;;;;5051278;28;20075;-71
2023/10/24 03:53:07;;;;;;;15.57;10.73;;;16.90;99.90;;;;;;5051621;28;20080;-71
2023/10/24 03:55:33;;;;;;;15.88;9.35;;;16.50;99.90;;;;;;5051615;28;20081;-71
2023/10/24 03:57:59;;;;;;;13.60;9.23;;;16.30;99.90;;;;;;5050882;28;20081;-71
2023/10/24 04:00:26;;;;;;;17.05;10.38;;;17.20;99.90;;;;;;5052087;28;20509;-71
2023/10/24 04:02:53;;;;;;;12.98;9.35;;;16.60;99.90;;;;;;5051228;28;20037;-70
2023/10/24 04:05:18;;;;;;;13.52;9.55;;;16.80;99.90;;;;;;5051648;28;20546;-71
2023/10/24 04:07:44;;;;;;;14.75;10.30;;;17.50;99.90;;;;;;5051988;28;20041;-71
2023/10/24 04:10:14;;;;;;;16.70;10.48;;;16.10;99.90;;;;;;5051113;28;20041;-71
2023/10/24 04:12:40;;;;;;;14.50;10.02;;;16.00;99.90;;;;;;5034988;28;20055;-71
2023/10/24 04:15:07;;;;;;;13.98;9.95;;;16.10;99.90;;;;;;5051300;28;20037;-69
2023/10/24 04:17:33;;;;;;;16.77;11.00;;;16.60;99.90;;;;;;5034694;28;20471;-71
2023/10/24 04:19:58;;;;;;;20.50;12.40;;;16.50;99.90;;;;;;5051657;28;20036;-70
2023/10/24 04:22:24;;;;;;;18.77;12.52;;;16.80;99.90;;;;;;5051062;28;20044;-71
2023/10/24 04:24:49;;;;;;;18.52;12.95;;;15.90;99.90;;;;;;5051378;28;20047;-71
2023/10/24 04:27:15;;;;;;;18.08;11.52;;;16.70;99.90;;;;;;5050872;28;20120;-71
2023/10/24 04:29:42;;;;;;;23.00;12.90;;;16.60;99.90;;;;;;5034766;28;20106;-71
2023/10/24 04:32:07;;;;;;;19.15;12.30;;;17.20;99.90;;;;;;5051335;28;20128;-71
2023/10/24 04:34:33;;;;;;;16.33;11.93;;;16.70;99.90;;;;;;5050637;28;20503;-71
2023/10/24 04:36:59;;;;;;;15.38;11.88;;;16.80;99.90;;;;;;5051114;28;20049;-71
2023/10/24 04:39:25;;;;;;;21.98;13.70;;;17.80;99.90;;;;;;5051275;28;20075;-71
2023/10/24 04:41:50;;;;;;;21.08;13.02;;;16.10;99.90;;;;;;5050425;28;20068;-71
2023/10/24 04:44:16;;;;;;;20.13;13.30;;;16.30;99.90;;;;;;5033752;28;20065;-71
2023/10/24 04:46:41;;;;;;;18.55;12.90;;;17.90;99.90;;;;;;5034241;28;20086;-71
2023/10/24 04:49:07;;;;;;;21.45;14.23;;;16.70;99.90;;;;;;5051028;28;20097;-71
2023/10/24 04:51:33;;;;;;;16.92;12.35;;;16.90;99.90;;;;;;5051044;28;20083;-70
2023/10/24 04:53:58;;;;;;;22.30;14.10;;;16.40;99.90;;;;;;5050055;28;20500;-71
2023/10/24 04:56:24;;;;;;;19.20;13.52;;;16.80;99.90;;;;;;5050629;28;20413;-71
2023/10/24 04:58:50;;;;;;;16.75;12.77;;;17.00;99.90;;;;;;5050389;28;20041;-71
2023/10/24 05:01:16;;;;;;;16.15;12.93;;;16.40;99.90;;;;;;5050439;28;20041;-71
2023/10/24 05:03:42;;;;;;;27.85;16.70;;;16.30;99.90;;;;;;5051299;28;20706;-71
2023/10/24 05:06:08;;;;;;;21.50;16.02;;;16.40;99.90;;;;;;5050577;28;20040;-72
2023/10/24 05:08:33;;;;;;;20.75;15.13;;;17.10;99.90;;;;;;5051941;28;20033;-71
2023/10/24 05:10:59;;;;;;;21.17;14.10;;;17.30;99.90;;;;;;5051828;28;20033;-71
2023/10/24 05:13:25;;;;;;;19.92;14.52;;;16.90;99.90;;;;;;5050182;28;20095;-71
2023/10/24 05:15:50;;;;;;;25.85;17.63;;;17.00;99.90;;;;;;5050129;28;20618;-71
2023/10/24 05:18:16;;;;;;;22.52;15.60;;;17.20;99.90;;;;;;5050556;28;20041;-70
2023/10/24 05:20:41;;;;;;;25.73;16.48;;;16.70;99.90;;;;;;5050254;28;20040;-71
2023/10/24 05:23:07;;;;;;;20.05;15.68;;;17.00;99.90;;;;;;5051405;28;20101;-71
2023/10/24 05:25:33;;;;;;;21.17;16.13;;;16.80;99.90;;;;;;5049789;28;20040;-71
2023/10/24 05:27:59;;;;;;;26.60;16.98;;;17.30;99.90;;;;;;5050577;28;20044;-71
2023/10/24 05:30:25;;;;;;;23.63;17.00;;;16.90;99.90;;;;;;5050500;28;20484;-71
2023/10/24 05:32:50;;;;;;;22.52;17.08;;;16.70;99.90;;;;;;5049632;28;20503;-71
2023/10/24 05:35:16;;;;;;;21.30;15.02;;;17.50;99.90;;;;;;5050619;28;20044;-71
2023/10/24 05:37:41;;;;;;;23.00;15.82;;;16.40;99.90;;;;;;5049305;28;20044;-69
2023/10/24 05:40:07;;;;;;;20.52;15.75;;;17.50;99.90;;;;;;5033875;28;20033;-70
2023/10/24 05:42:33;;;;;;;22.80;16.27;;;16.70;99.90;;;;;;5033529;28;20163;-70
2023/10/24 05:44:59;;;;;;;21.67;16.80;;;17.10;99.90;;;;;;5033436;28;20385;-71
2023/10/24 05:47:24;;;;;;;20.15;15.80;;;16.90;99.90;;;;;;5050203;28;20037;-71
2023/10/24 05:49:50;;;;;;;20.88;16.42;;;16.60;99.90;;;;;;5050125;28;20041;-70
2023/10/24 05:52:16;;;;;;;21.83;16.40;;;16.80;99.90;;;;;;5049388;28;20043;-71
2023/10/24 05:54:42;;;;;;;22.10;16.30;;;16.60;99.90;;;;;;5049708;28;20033;-71
2023/10/24 05:57:08;;;;;;;20.80;16.88;;;16.90;99.90;;;;;;5050413;28;20037;-71
2023/10/24 05:59:33;;;;;;;25.85;16.73;;;17.10;99.90;;;;;;5033494;28;20040;-71
2023/10/24 06:01:59;;;;;;;20.38;15.20;;;17.30;99.90;;;;;;5050813;28;20042;-71
2023/10/24 06:04:25;;;;;;;23.83;17.48;;;17.70;99.90;;;;;;5034322;28;20067;-71
2023/10/24 06:06:50;;;;;;;20.45;15.27;;;17.20;99.90;;;;;;5051866;28;20041;-71
2023/10/24 06:09:17;;;;;;;22.73;15.70;;;18.30;99.90;;;;;;5033537;28;20501;-71
2023/10/24 06:11:43;;;;;;;30.40;17.67;;;16.70;99.90;;;;;;5057839;28;20044;-70
2023/10/24 06:14:09;;;;;;;22.88;16.42;;;16.70;99.90;;;;;;5071177;28;20059;-71
2023/10/24 06:16:34;;;;;;;23.30;16.33;;;17.60;99.90;;;;;;5061985;28;20041;-71
2023/10/24 06:19:00;;;;;;;21.02;16.35;;;17.30;99.90;;;;;;5049722;28;20496;-70
2023/10/24 06:21:26;;;;;;;19.75;15.77;;;16.80;99.90;;;;;;5048228;28;20040;-70
2023/10/24 06:23:53;;;;;;;24.33;16.55;;;17.30;99.90;;;;;;5049285;28;20168;-71
2023/10/24 06:26:19;;;;;;;21.65;15.93;;;17.40;99.90;;;;;;5049691;28;20045;-71
2023/10/24 06:28:45;;;;;;;18.65;14.05;;;17.40;99.90;;;;;;5049524;28;20036;-71
2023/10/24 06:31:12;;;;;;;21.70;15.00;;;17.40;99.90;;;;;;5032909;28;20045;-71
2023/10/24 06:33:38;;;;;;;20.33;14.45;;;16.60;99.90;;;;;;5063421;28;20041;-71
2023/10/24 06:36:05;;;;;;;18.77;13.52;;;17.40;99.90;;;;;;5063920;28;20033;-71
2023/10/24 06:38:31;;;;;;;16.27;13.05;;;17.30;99.90;;;;;;5049734;28;20052;-71
2023/10/24 06:40:58;;;;;;;15.90;12.30;;;18.40;99.90;;;;;;5035430;28;20044;-71
2023/10/24 06:43:26;;;;;;;13.80;10.68;;;17.40;99.90;;;;;;5051660;28;20419;-71
2023/10/24 06:45:53;;;;;;;13.07;10.63;;;16.70;99.90;;;;;;5069003;28;20135;-70
2023/10/24 06:48:19;;;;;;;15.23;10.20;;;17.80;99.90;;;;;;5065349;28;20123;-71
2023/10/24 06:50:44;;;;;;;13.50;9.90;;;16.50;99.90;;;;;;5064891;28;20123;-69
2023/10/24 06:53:11;;;;;;;10.90;9.05;;;17.40;99.90;;;;;;5059770;28;20056;-70
2023/10/24 06:55:38;;;;;;;13.43;9.65;;;17.30;99.90;;;;;;5052950;28;20041;-70
2023/10/24 06:58:03;;;;;;;11.35;8.70;;;17.40;99.90;;;;;;5052674;28;20052;-70
2023/10/24 07:00:29;;;;;;;12.70;8.98;;;17.30;99.90;;;;;;5060637;28;20550;-69
2023/10/24 07:02:55;;;;;;;12.07;8.93;;;16.80;99.90;;;;;;5063452;28;20033;-70
2023/10/24 07:05:21;;;;;;;11.43;8.90;;;16.70;99.90;;;;;;5052804;28;20040;-70
2023/10/24 07:07:47;;;;;;;12.63;8.75;;;17.00;99.90;;;;;;5050095;28;20429;-70
2023/10/24 07:10:13;;;;;;;10.70;7.63;;;17.20;99.90;;;;;;5058172;28;20078;-70
2023/10/24 07:12:38;;;;;;;10.60;8.30;;;16.60;99.90;;;;;;5051056;28;20048;-70
2023/10/24 07:15:05;;;;;;;8.95;7.50;;;17.70;99.90;;;;;;5058900;28;20102;-70
2023/10/24 07:17:32;;;;;;;9.52;7.80;;;16.50;99.90;;;;;;5064516;28;20041;-70
2023/10/24 07:20:00;;;;;;;11.30;8.18;;;17.30;99.90;;;;;;5038632;28;20033;-70
2023/10/24 07:22:28;;;;;;;10.68;8.07;;;17.40;99.90;;;;;;5055835;28;20081;-70
2023/10/24 07:24:54;;;;;;;13.73;10.00;;;16.50;99.90;;;;;;5057860;28;20040;-70
2023/10/24 07:27:20;;;;;;;11.05;8.18;;;17.40;99.90;;;;;;5067426;28;20488;-70
2023/10/24 07:29:46;;;;;;;16.55;9.77;;;17.10;99.90;;;;;;5054643;28;20083;-70
2023/10/24 07:32:12;;;;;;;16.73;10.10;;;16.70;99.90;;;;;;5054274;28;20072;-70
2023/10/24 07:34:41;;;;;;;16.55;10.30;;;16.90;99.90;;;;;;5070098;28;20119;-70
2023/10/24 07:37:09;;;;;;;15.60;10.77;;;16.80;99.90;;;;;;5067891;28;20064;-70
2023/10/24 07:39:36;;;;;;;15.02;10.35;;;16.40;99.90;;;;;;5069236;28;20071;-70
2023/10/24 07:42:03;;;;;;;16.45;10.13;;;18.10;99.90;;;;;;5072063;28;20088;-70
2023/10/24 07:44:28;;;;;;;20.25;11.95;;;16.90;99.90;;;;;;5070242;28;20492;-70
2023/10/24 07:46:54;;;;;;;15.82;10.70;;;17.50;99.90;;;;;;5070006;28;20037;-70
2023/10/24 07:49:20;;;;;;;20.40;11.20;;;16.60;99.90;;;;;;5072202;28;20052;-68
2023/10/24 07:51:46;;;;;;;19.05;11.23;;;17.50;99.90;;;;;;5052535;28;20047;-72
2023/10/24 07:54:12;;;;;;;16.05;10.82;;;17.40;99.90;;;;;;5071251;28;20040;-70
2023/10/24 07:56:41;;;;;;;24.17;14.07;;;16.60;99.90;;;;;;5062976;28;20048;-68
2023/10/24 07:59:07;;;;;;;17.65;12.13;;;17.00;99.90;;;;;;5052096;28;20035;-70
2023/10/24 08:01:34;;;;;;;25.27;15.00;;;16.80;99.90;;;;;;5052183;28;20071;-71
2023/10/24 08:03:59;;;;;;;22.17;13.48;;;17.60;99.90;;;;;;5051273;28;20090;-70
2023/10/24 08:06:25;;;;;;;22.67;14.20;;;18.00;99.90;;;;;;5052261;28;20545;-70
2023/10/24 08:08:50;;;;;;;21.10;13.70;;;17.50;99.90;;;;;;5035320;28;20550;-70
2023/10/24 08:11:16;;;;;;;18.98;12.82;;;16.40;99.90;;;;;;5050878;28;20041;-70
2023/10/24 08:13:42;;;;;;;21.83;13.68;;;17.50;99.90;;;;;;5034767;28;20045;-70
2023/10/24 08:16:07;;;;;;;25.85;14.45;;;17.20;99.90;;;;;;5066138;28;20048;-69
2023/10/24 08:18:34;;;;;;;21.98;13.55;;;17.40;99.90;;;;;;5068766;28;20032;-70
2023/10/24 08:21:00;;;;;;;22.77;13.80;;;16.50;99.90;;;;;;5071277;28;20457;-70
2023/10/24 08:23:28;;;;;;;22.17;13.10;;;18.10;99.90;;;;;;5051625;28;20032;-70
2023/10/24 08:25:53;;;;;;;26.67;15.15;;;16.70;99.90;;;;;;5071242;28;20033;-70
2023/10/24 08:28:19;;;;;;;21.05;13.90;;;17.40;99.90;;;;;;5070401;28;20413;-69
2023/10/24 08:30:45;;;;;;;24.60;15.38;;;17.30;99.90;;;;;;5068853;28;20032;-70
2023/10/24 08:33:10;;;;;;;25.77;14.63;;;17.00;99.90;;;;;;5075617;28;20032;-70
2023/10/24 08:35:36;;;;;;;21.88;15.30;;;16.60;99.90;;;;;;5074128;28;20098;-70
2023/10/24 08:38:03;;;;;;;28.15;15.35;;;17.20;99.90;;;;;;5073185;28;20059;-69
2023/10/24 08:40:29;;;;;;;31.35;15.80;;;17.70;99.90;;;;;;5071465;28;20459;-69
2023/10/24 08:42:55;;;;;;;23.15;14.73;;;17.70;99.90;;;;;;5072574;28;20107;-71
2023/10/24 08:45:21;;;;;;;24.08;13.88;;;17.70;99.90;;;;;;5072266;28;20404;-71
2023/10/24 08:47:47;;;;;;;23.70;14.45;;;17.70;99.90;;;;;;5054044;28;20036;-69
2023/10/24 08:50:13;;;;;;;23.52;15.18;;;17.30;99.90;;;;;;5071351;28;20044;-70
2023/10/24 08:52:39;;;;;;;20.63;14.48;;;17.00;99.90;;;;;;5070807;28;20488;-70
2023/10/24 08:55:05;;;;;;;25.40;15.75;;;16.80;99.90;;;;;;5071139;28;20051;-69
2023/10/24 08:57:37;;;;;;;21.65;14.32;;;17.30;99.90;;;;;;5071015;28;20129;-70
2023/10/24 09:00:04;;;;;;;24.13;15.30;;;17.30;99.90;;;;;;5071142;28;20051;-70
2023/10/24 09:02:30;;;;;;;22.65;14.32;;;17.40;99.90;;;;;;5070846;28;20267;-69
2023/10/24 09:04:57;;;;;;;23.30;15.52;;;17.30;99.90;;;;;;5070928;28;20413;-70
2023/10/24 09:07:22;;;;;;;24.33;15.68;;;17.50;99.90;;;;;;5071149;28;20458;-69
2023/10/24 09:09:48;;;;;;;23.92;15.68;;;16.80;99.90;;;;;;5071187;28;20028;-70
2023/10/24 09:12:15;;;;;;;21.00;14.77;;;17.80;99.90;;;;;;5070647;28;20071;-70
2023/10/24 09:14:45;;;;;;;20.88;14.35;;;16.90;99.90;;;;;;5070738;28;20051;-70
2023/10/24 09:17:13;;;;;;;22.80;15.45;;;17.50;99.90;;;;;;5054292;28;20040;-70
2023/10/24 09:19:42;;;;;;;24.48;15.85;;;16.10;99.90;;;;;;5071040;28;20407;-70
2023/10/24 09:22:08;;;;;;;25.38;14.77;;;17.60;99.90;;;;;;5053999;28;20032;-70
2023/10/24 09:24:36;;;;;;;24.08;16.60;;;17.70;99.90;;;;;;5070528;28;20036;-69
2023/10/24 09:27:02;;;;;;;25.27;16.10;;;17.10;99.90;;;;;;5070808;28;20138;-70
2023/10/24 09:29:31;;;;;;;23.33;15.23;;;17.00;99.90;;;;;;5070150;28;20054;-69
2023/10/24 09:31:58;;;;;;;21.20;15.25;;;17.30;99.90;;;;;;5070161;28;20036;-71
2023/10/24 09:34:24;;;;;;;20.25;14.10;;;17.80;99.90;;;;;;5070428;28;20063;-70
2023/10/24 09:36:50;;;;;;;21.27;14.85;;;18.10;99.90;;;;;;5070885;28;20086;-70
2023/10/24 09:39:16;;;;;;;24.80;16.35;;;17.70;99.90;;;;;;5070743;28;20032;-69
2023/10/24 09:41:43;;;;;;;21.40;15.23;;;17.10;99.90;;;;;;5053815;28;20106;-70
2023/10/24 09:44:09;;;;;;;23.00;15.00;;;17.70;99.90;;;;;;5070549;28;20036;-70
2023/10/24 09:46:36;;;;;;;21.70;15.48;;;17.10;99.90;;;;;;5070258;28;20036;-69
2023/10/24 09:49:04;;;;;;;24.77;16.73;;;17.30;99.90;;;;;;5070288;28;20509;-69
2023/10/24 09:51:31;;;;;;;26.13;16.40;;;17.20;99.90;;;;;;5053360;28;20072;-70
2023/10/24 09:53:58;;;;;;;26.77;15.63;;;17.50;99.90;;;;;;5053308;28;20044;-70
2023/10/24 09:56:25;;;;;;;21.73;14.68;;;16.80;99.90;;;;;;5070429;28;20411;-70
2023/10/24 09:58:52;;;;;;;26.15;16.50;;;16.90;99.90;;;;;;5070533;28;20093;-70
2023/10/24 10:01:18;;;;;;;25.42;16.45;;;16.80;99.90;;;;;;5070126;28;20043;-70
2023/10/24 10:03:44;;;;;;;20.77;14.98;;;17.50;99.90;;;;;;5070027;28;20051;-70
2023/10/24 10:06:13;;;;;;;22.00;15.02;;;17.00;99.90;;;;;;5070184;28;20036;-70
2023/10/24 10:08:41;;;;;;;25.65;16.40;;;16.90;99.90;;;;;;5070226;28;20053;-70
2023/10/24 10:11:07;;;;;;;21.92;14.65;;;17.20;99.90;;;;;;5071495;28;20043;-69
2023/10/24 10:13:55;;;;;;;22.92;15.77;;;17.50;99.90;;;;;;5053352;28;20042;-70
2023/10/24 10:16:57;;;;;;;24.90;15.82;;;17.50;99.90;;;;;;5070056;28;20067;-70
2023/10/24 10:19:35;;;;;;;24.30;14.63;;;16.80;99.90;;;;;;5070219;28;20036;-70
2023/10/24 10:22:07;;;;;;;22.58;14.75;;;17.70;99.90;;;;;;5070028;28;20047;-70
2023/10/24 10:24:33;;;;;;;26.23;16.15;;;17.10;99.90;;;;;;5069916;28;20090;-67
2023/10/24 10:27:37;;;;;;;24.63;16.05;;;16.80;99.90;;;;;;5070254;28;20094;-69
2023/10/24 10:30:34;;;;;;;21.42;13.98;;;17.10;99.90;;;;;;5070402;28;20059;-70
2023/10/24 10:33:09;;;;;;;23.40;15.18;;;16.80;99.90;;;;;;5069991;28;20510;-69
2023/10/24 10:35:53;;;;;;;24.45;15.88;;;17.60;99.90;;;;;;5070283;28;20438;-69
2023/10/24 10:38:40;;;;;;;20.98;14.50;;;17.70;99.90;;;;;;5070144;28;20048;-70
2023/10/24 10:41:21;;;;;;;23.90;15.18;;;17.90;99.90;;;;;;5070266;28;20036;-70
2023/10/24 10:43:54;;;;;;;23.17;15.50;;;17.60;99.90;;;;;;5071133;28;20039;-70
2023/10/24 10:46:23;;;;;;;20.13;14.63;;;17.90;99.90;;;;;;5057257;28;20237;-70
2023/10/24 10:48:50;;;;;;;23.85;15.45;;;17.50;99.90;;;;;;5073975;28;20384;-69
2023/10/24 10:51:20;;;;;;;21.90;14.85;;;17.00;99.90;;;;;;5073669;28;20408;-70
2023/10/24 10:54:17;;;;;;;23.30;15.20;;;17.40;99.90;;;;;;5073186;28;20098;-70
2023/10/24 10:56:45;;;;;;;22.60;14.82;;;17.40;99.90;;;;;;5073143;28;20045;-70
2023/10/24 10:59:57;;;;;;;23.13;15.40;;;17.00;99.90;;;;;;5073322;28;20043;-70
2023/10/24 11:02:34;;;;;;;25.80;17.20;;;17.60;99.90;;;;;;5053063;28;20051;-69
2023/10/24 11:04:59;;;;;;;23.38;16.30;;;17.20;99.90;;;;;;5053443;28;20051;-71
2023/10/24 11:07:51;;;;;;;24.15;16.67;;;18.40;99.90;;;;;;5053287;28;20045;-70
2023/10/24 11:10:18;;;;;;;23.73;17.30;;;17.90;99.90;;;;;;5053168;28;20053;-70
2023/10/24 11:12:47;;;;;;;24.95;16.60;;;17.50;99.90;;;;;;5053079;28;20413;-70
2023/10/24 11:15:18;;;;;;;26.00;17.20;;;17.30;99.90;;;;;;5053382;28;20390;-70
2023/10/24 11:17:46;;;;;;;24.15;16.77;;;17.40;99.90;;;;;;5058280;28;20177;-70
2023/10/24 11:20:11;;;;;;;22.95;16.77;;;16.70;99.90;;;;;;5056631;28;20120;-70
2023/10/24 11:22:39;;;;;;;22.83;15.80;;;;;;;;;;5058317;28;20124;-70
2023/10/24 11:25:16;;;;;;;27.92;17.75;;;18.20;99.90;;;;;;5056941;28;20045;-69
2023/10/24 11:27:42;;;;;;;23.00;16.50;;;18.00;99.90;;;;;;5055438;28;20040;-68
2023/10/24 11:30:08;;;;;;;26.75;17.63;;;18.20;99.90;;;;;;5054717;28;20553;-69
2023/10/24 11:32:34;;;;;;;26.73;16.65;;;17.40;99.90;;;;;;5036894;28;20037;-69
2023/10/24 11:35:03;;;;;;;25.10;16.95;;;17.80;99.90;;;;;;5048181;28;20490;-70
2023/10/24 11:37:29;;;;;;;26.00;17.63;;;17.30;99.90;;;;;;5058827;28;20106;-71
2023/10/24 11:39:57;;;;;;;21.63;16.05;;;17.60;99.90;;;;;;5054190;28;20045;-70
2023/10/24 11:42:23;;;;;;;23.05;16.23;;;18.20;99.90;;;;;;5062719;28;20041;-72
2023/10/24 11:44:48;;;;;;;22.77;15.90;;;17.70;99.90;;;;;;5068725;28;20036;-69
2023/10/24 11:47:14;;;;;;;23.25;16.40;;;17.30;99.90;;;;;;5054195;28;20040;-70
2023/10/24 11:49:40;;;;;;;22.10;15.77;;;18.10;99.90;;;;;;5087347;28;20036;-70
2023/10/24 11:52:06;;;;;;;20.80;15.50;;;18.10;99.90;;;;;;5070496;28;20422;-71
2023/10/24 11:54:32;;;;;;;24.45;18.15;;;17.80;99.90;;;;;;5055079;28;20040;-71
2023/10/24 11:56:59;;;;;;;22.13;16.08;;;17.40;99.90;;;;;;5072029;28;20508;-71
2023/10/24 11:59:34;;;;;;;24.38;17.05;;;17.30;99.90;;;;;;5071653;28;20028;-71
2023/10/24 12:02:04;;;;;;;20.85;15.38;;;17.60;99.90;;;;;;5054265;28;20404;-71
2023/10/24 12:04:30;;;;;;;23.08;16.23;;;17.40;99.90;;;;;;5069499;28;20039;-71
2023/10/24 12:07:08;;;;;;;21.13;15.55;;;18.40;99.90;;;;;;5071805;28;20122;-70
2023/10/24 12:09:36;;;;;;;22.42;15.75;;;18.00;99.90;;;;;;5069854;28;20568;-69
2023/10/24 12:12:03;;;;;;;20.27;15.63;;;16.40;99.90;;;;;;5035224;28;20493;-70
2023/10/24 12:14:29;;;;;;;25.33;15.82;;;17.90;99.90;;;;;;5035235;28;20045;-71
2023/10/24 12:16:56;;;;;;;21.55;15.95;;;17.80;99.90;;;;;;5054659;28;20123;-70
2023/10/24 12:19:22;;;;;;;22.80;15.32;;;17.40;99.90;;;;;;5052295;28;20546;-70
2023/10/24 12:21:47;;;;;;;20.88;15.40;;;18.70;99.90;;;;;;5051898;28;20045;-70
2023/10/24 12:24:13;;;;;;;22.67;15.85;;;18.20;99.90;;;;;;5035024;28;20412;-70
2023/10/24 12:26:39;;;;;;;23.95;16.48;;;17.50;99.90;;;;;;5051772;28;20389;-70
2023/10/24 12:29:09;;;;;;;19.35;13.95;;;17.80;99.90;;;;;;5051884;28;20041;-70